createdAt,value
2023-03-24T00:03:40.351Z,975.8
2023-03-24T00:07:43.278Z,975.7
2023-03-24T00:09:44.641Z,975.8
2023-03-24T00:13:48.034Z,975.7
2023-03-24T00:15:49.482Z,975.7
2023-03-24T00:19:51.688Z,975.7
2023-03-24T00:23:54.103Z,975.7
2023-03-24T00:25:55.713Z,975.7
2023-03-24T00:29:58.603Z,975.6
2023-03-24T00:32:00.264Z,975.6
2023-03-24T00:36:02.905Z,975.6
2023-03-24T00:40:06.285Z,975.5
2023-03-24T00:42:07.602Z,975.4
2023-03-24T00:46:10.171Z,975.4
2023-03-24T00:50:13.021Z,975.3
2023-03-24T00:52:14.142Z,975.3
2023-03-24T00:56:16.060Z,975.4
2023-03-24T00:58:17.579Z,975.4
2023-03-24T01:00:18.725Z,975.3
2023-03-24T01:02:20.349Z,975.2
2023-03-24T01:06:23.364Z,975.2
2023-03-24T01:08:32.631Z,975.1
2023-03-24T01:10:26.150Z,975.1
2023-03-24T01:12:27.785Z,975
2023-03-24T01:14:28.753Z,975
2023-03-24T01:18:31.564Z,974.9
2023-03-24T01:22:34.422Z,974.9
2023-03-24T01:24:35.862Z,974.9
2023-03-24T01:28:38.602Z,974.8
2023-03-24T01:34:42.396Z,974.7
2023-03-24T01:38:45.598Z,974.6
2023-03-24T01:40:46.856Z,974.6
2023-03-24T01:44:49.570Z,974.5
2023-03-24T01:48:51.728Z,974.6
2023-03-24T01:50:52.894Z,974.4
2023-03-24T01:54:55.132Z,974.4
2023-03-24T01:56:56.527Z,974.3
2023-03-24T02:00:58.946Z,974.2
2023-03-24T02:05:00.767Z,974.2
2023-03-24T02:07:01.788Z,974.1
2023-03-24T02:11:04.258Z,974
2023-03-24T02:13:05.535Z,974
2023-03-24T02:17:07.900Z,974
2023-03-24T02:21:10.809Z,974
2023-03-24T02:25:57.553Z,974
2023-03-24T02:27:59.383Z,974
2023-03-24T02:32:02.804Z,974
2023-03-24T02:34:03.944Z,974
2023-03-24T02:36:05.282Z,973.9
2023-03-24T02:38:06.960Z,974
2023-03-24T02:42:10.248Z,973.9
2023-03-24T02:44:11.721Z,973.9
2023-03-24T02:48:14.391Z,973.8
2023-03-24T02:50:15.489Z,973.8
2023-03-24T02:54:17.828Z,973.8
2023-03-24T02:58:20.806Z,973.9
2023-03-24T03:00:21.753Z,973.8
2023-03-24T03:04:24.512Z,973.8
2023-03-24T03:06:25.457Z,973.8
2023-03-24T03:10:28.838Z,973.7
2023-03-24T03:14:32.122Z,973.8
2023-03-24T03:16:33.306Z,973.9
2023-03-24T03:20:35.984Z,973.8
2023-03-24T03:24:37.936Z,973.7
2023-03-24T03:26:39.814Z,973.6
2023-03-24T03:30:42.191Z,973.6
2023-03-24T03:32:44.048Z,973.5
2023-03-24T03:36:46.701Z,973.4
2023-03-24T03:40:49.723Z,973.5
2023-03-24T03:42:50.680Z,973.5
2023-03-24T03:46:53.396Z,973.4
2023-03-24T03:48:54.600Z,973.4
2023-03-24T03:52:57.134Z,973.4
2023-03-24T03:56:59.711Z,973.4
2023-03-24T03:59:01.008Z,973.3
2023-03-24T04:03:04.364Z,973.3
2023-03-24T04:07:06.460Z,973.4
2023-03-24T04:09:08.014Z,973.4
2023-03-24T04:13:10.590Z,973.4
2023-03-24T04:15:12.327Z,973.2
2023-03-24T04:19:14.885Z,973.3
2023-03-24T04:23:17.651Z,973.2
2023-03-24T04:25:19.149Z,973.2
2023-03-24T04:29:22.054Z,973.2
2023-03-24T04:31:23.053Z,973.3
2023-03-24T04:35:25.251Z,973.2
2023-03-24T04:39:28.423Z,973.1
2023-03-24T04:41:30.111Z,973.3
2023-03-24T04:45:33.012Z,973.3
2023-03-24T04:49:36.390Z,973.3
2023-03-24T04:51:38.115Z,973.2
2023-03-24T04:55:40.014Z,973.2
2023-03-24T04:57:41.454Z,973.3
2023-03-24T04:59:42.950Z,973.4
2023-03-24T05:01:44.020Z,973.3
2023-03-24T05:05:47.165Z,973.6
2023-03-24T05:07:48.019Z,973.5
2023-03-24T05:11:50.628Z,973.7
2023-03-24T05:13:51.783Z,973.7
2023-03-24T05:17:54.896Z,973.7
2023-03-24T05:21:57.677Z,973.7
2023-03-24T05:23:58.472Z,973.9
2023-03-24T05:28:01.509Z,974
2023-03-24T05:30:03.358Z,974
2023-03-24T05:32:13.556Z,974.1
2023-03-24T05:34:06.210Z,974.2
2023-03-24T05:38:09.234Z,974.2
2023-03-24T05:40:10.294Z,974.2
2023-03-24T05:44:12.720Z,974.2
2023-03-24T05:48:15.306Z,974.5
2023-03-24T05:50:16.973Z,974.6
2023-03-24T05:54:20.018Z,974.7
2023-03-24T05:56:21.406Z,974.8
2023-03-24T06:00:24.370Z,974.9
2023-03-24T06:04:27.115Z,974.9
2023-03-24T06:06:28.644Z,974.7
2023-03-24T06:10:31.688Z,974.8
2023-03-24T06:12:32.641Z,974.8
2023-03-24T06:16:35.955Z,974.7
2023-03-24T06:20:39.064Z,974.8
2023-03-24T06:22:40.610Z,974.7
2023-03-24T06:26:43.079Z,974.7
2023-03-24T06:30:45.537Z,974.8
2023-03-24T06:32:46.995Z,974.8
2023-03-24T06:36:49.299Z,974.7
2023-03-24T06:42:54.169Z,974.6
2023-03-24T06:46:56.484Z,974.6
2023-03-24T06:48:57.768Z,974.7
2023-03-24T06:53:00.211Z,974.7
2023-03-24T06:55:00.954Z,974.5
2023-03-24T06:59:03.442Z,974.6
2023-03-24T07:03:06.040Z,974.7
2023-03-24T07:05:07.523Z,974.7
2023-03-24T07:09:10.135Z,974.7
2023-03-24T07:13:13.558Z,974.8
2023-03-24T07:15:15.455Z,974.7
2023-03-24T07:19:17.759Z,974.7
2023-03-24T07:21:19.083Z,974.8
2023-03-24T07:23:20.721Z,974.8
2023-03-24T07:25:21.659Z,974.8
2023-03-24T07:29:24.501Z,974.8
2023-03-24T07:31:25.714Z,974.9
2023-03-24T07:33:27.417Z,974.9
2023-03-24T07:35:28.672Z,974.9
2023-03-24T07:37:30.159Z,974.8
2023-03-24T07:41:33.331Z,974.9
2023-03-24T07:43:34.326Z,974.9
2023-03-24T07:45:35.968Z,974.9
2023-03-24T07:47:37.544Z,974.9
2023-03-24T07:51:41.172Z,974.9
2023-03-24T07:53:40.915Z,975
2023-03-24T07:57:43.204Z,975.1
2023-03-24T08:01:47.815Z,975
2023-03-24T08:03:47.749Z,974.9
2023-03-24T08:07:50.548Z,975.1
2023-03-24T08:11:53.698Z,975
2023-03-24T08:13:55.133Z,975
2023-03-24T08:17:57.311Z,975.1
2023-03-24T08:20:00.360Z,975.1
2023-03-24T08:24:02.213Z,975
2023-03-24T08:28:05.542Z,975.1
2023-03-24T08:30:06.816Z,975
2023-03-24T08:34:09.119Z,974.8
2023-03-24T08:36:10.431Z,974.9
2023-03-24T08:40:13.408Z,974.8
2023-03-24T08:44:15.620Z,974.8
2023-03-24T08:46:16.979Z,974.9
2023-03-24T08:50:19.940Z,974.9
2023-03-24T08:54:22.736Z,974.9
2023-03-24T08:56:24.200Z,974.8
2023-03-24T09:00:26.892Z,974.9
2023-03-24T09:02:28.441Z,974.8
2023-03-24T09:06:31.455Z,974.9
2023-03-24T09:11:17.821Z,974.8
2023-03-24T09:13:18.848Z,974.8
2023-03-24T09:17:21.605Z,974.8
2023-03-24T09:21:24.406Z,974.8
2023-03-24T09:23:34.480Z,974.7
2023-03-24T09:27:27.901Z,974.9
2023-03-24T09:33:32.186Z,974.9
2023-03-24T09:37:35.208Z,974.9
2023-03-24T09:39:36.775Z,974.7
2023-03-24T09:43:39.527Z,974.8
2023-03-24T09:47:43.029Z,974.7
2023-03-24T09:49:44.635Z,974.9
2023-03-24T09:53:47.536Z,974.9
2023-03-24T09:55:48.743Z,974.8
2023-03-24T09:59:51.118Z,974.8
2023-03-24T10:03:53.998Z,974.8
2023-03-24T10:05:54.810Z,974.9
2023-03-24T10:09:57.633Z,974.9
2023-03-24T10:11:58.833Z,974.8
2023-03-24T10:13:59.928Z,974.7
2023-03-24T10:16:01.327Z,974.8
2023-03-24T10:20:03.467Z,974.8
2023-03-24T10:22:04.714Z,974.9
2023-03-24T10:26:07.498Z,974.9
2023-03-24T10:28:08.601Z,974.8
2023-03-24T10:32:11.614Z,974.7
2023-03-24T10:36:15.647Z,974.7
2023-03-24T10:38:16.514Z,974.8
2023-03-24T10:42:18.913Z,974.6
2023-03-24T10:44:20.079Z,974.7
2023-03-24T10:48:22.339Z,974.8
2023-03-24T10:52:24.859Z,974.8
2023-03-24T10:54:25.747Z,974.8
2023-03-24T10:58:29.079Z,974.7
2023-03-24T11:02:32.466Z,974.6
2023-03-24T11:04:33.520Z,974.7
2023-03-24T11:08:37.421Z,974.7
2023-03-24T11:10:38.849Z,974.8
2023-03-24T11:14:41.511Z,974.9
2023-03-24T11:18:43.749Z,974.8
2023-03-24T11:20:44.814Z,974.8
2023-03-24T11:24:48.237Z,974.9
2023-03-24T11:26:49.344Z,975.1
2023-03-24T11:30:52.574Z,975.1
2023-03-24T11:34:55.433Z,975.1
2023-03-24T11:36:56.615Z,975.1
2023-03-24T11:40:59.771Z,975
2023-03-24T11:45:02.485Z,974.9
2023-03-24T11:47:03.483Z,975.1
2023-03-24T11:51:06.631Z,975.1
2023-03-24T11:53:08.265Z,975.1
2023-03-24T11:57:10.274Z,975.1
2023-03-24T12:01:12.930Z,975.2
2023-03-24T12:03:14.782Z,975.2
2023-03-24T12:07:16.959Z,975.2
2023-03-24T12:09:18.671Z,975.1
2023-03-24T12:13:32.070Z,975.3
2023-03-24T12:17:24.366Z,975.1
2023-03-24T12:19:25.775Z,975.3
2023-03-24T12:23:30.060Z,975.1
2023-03-24T12:27:33.654Z,974.9
2023-03-24T12:29:34.554Z,974.9
2023-03-24T12:33:37.338Z,975.1
2023-03-24T12:35:39.606Z,975.2
2023-03-24T12:37:40.222Z,975.1
2023-03-24T12:39:41.244Z,975.2
2023-03-24T12:43:43.563Z,975.2
2023-03-24T12:45:45.372Z,975.1
2023-03-24T12:47:47.067Z,975.2
2023-03-24T12:49:48.542Z,975.2
2023-03-24T12:51:50.207Z,975.2
2023-03-24T12:55:53.500Z,975.3
2023-03-24T12:59:56.704Z,975.4
2023-03-24T13:01:57.987Z,975.3
2023-03-24T13:06:07.462Z,975.4
2023-03-24T13:10:04.432Z,975.4
2023-03-24T13:12:07.924Z,975.5
2023-03-24T13:16:09.517Z,975.5
2023-03-24T13:18:10.571Z,975.4
2023-03-24T13:20:12.097Z,975.5
2023-03-24T13:22:13.756Z,975.5
2023-03-24T13:26:16.941Z,975.3
2023-03-24T13:28:17.998Z,975.3
2023-03-24T13:30:19.962Z,975.3
2023-03-24T13:32:20.647Z,975.3
2023-03-24T13:34:21.602Z,975.3
2023-03-24T13:38:24.936Z,975.4
2023-03-24T13:42:27.463Z,975.4
2023-03-24T13:44:29.273Z,975.5
2023-03-24T13:48:31.727Z,975.6
2023-03-24T13:50:33.264Z,975.5
2023-03-24T13:54:35.737Z,975.4
2023-03-24T13:58:39.607Z,975.3
2023-03-24T14:00:41.048Z,975.4
2023-03-24T14:04:44.408Z,975.4
2023-03-24T14:08:47.725Z,975.4
2023-03-24T14:10:49.214Z,975.5
2023-03-24T14:15:00.175Z,975.3
2023-03-24T14:16:53.629Z,975.2
2023-03-24T14:20:56.506Z,975.1
2023-03-24T14:24:59.041Z,975.3
2023-03-24T14:27:00.979Z,975.4
2023-03-24T14:31:03.954Z,975.4
2023-03-24T14:33:05.592Z,975.4
2023-03-24T14:37:08.070Z,975.4
2023-03-24T14:41:10.748Z,975.4
2023-03-24T14:43:11.698Z,975.3
2023-03-24T14:47:14.529Z,975.3
2023-03-24T14:51:17.760Z,975.3
2023-03-24T14:53:18.658Z,975.4
2023-03-24T14:57:20.866Z,975.5
2023-03-24T14:59:22.332Z,975.5
2023-03-24T15:03:24.901Z,975.5
2023-03-24T15:07:27.640Z,975.5
2023-03-24T15:09:28.773Z,975.5
2023-03-24T15:13:31.820Z,975.8
2023-03-24T15:15:33.207Z,975.6
2023-03-24T15:19:35.494Z,975.6
2023-03-24T15:23:38.574Z,975.6
2023-03-24T15:25:40.085Z,975.6
2023-03-24T15:29:42.739Z,975.5
2023-03-24T15:35:46.478Z,975.5
2023-03-24T15:39:49.079Z,975.5
2023-03-24T15:41:50.209Z,975.3
2023-03-24T15:46:01.376Z,975.2
2023-03-24T15:49:55.503Z,975.2
2023-03-24T15:51:56.610Z,975.3
2023-03-24T15:56:43.520Z,975.4
2023-03-24T16:00:45.600Z,975.2
2023-03-24T16:02:46.840Z,975.4
2023-03-24T16:06:50.517Z,975.3
2023-03-24T16:08:50.684Z,975.2
2023-03-24T16:12:54.111Z,975.3
2023-03-24T16:16:57.518Z,975.3
2023-03-24T16:18:58.710Z,975.2
2023-03-24T16:23:01.083Z,975.3
2023-03-24T16:27:03.161Z,975.4
2023-03-24T16:29:04.459Z,975.2
2023-03-24T16:33:07.755Z,975.2
2023-03-24T16:35:09.243Z,975.3
2023-03-24T16:39:11.227Z,975.4
2023-03-24T16:43:13.825Z,975.5
2023-03-24T16:45:15.694Z,975.5
2023-03-24T16:49:18.434Z,975.3
2023-03-24T16:51:20.174Z,975.4
2023-03-24T16:55:23.099Z,975.5
2023-03-24T16:59:26.144Z,975.4
2023-03-24T17:01:27.698Z,975.4
2023-03-24T17:05:30.508Z,975.5
2023-03-24T17:11:34.546Z,975.5
2023-03-24T17:15:37.178Z,975.5
2023-03-24T17:17:38.901Z,975.4
2023-03-24T17:19:40.628Z,975.5
2023-03-24T17:21:42.287Z,975.4
2023-03-24T17:25:45.272Z,975.4
2023-03-24T17:27:47.165Z,975.4
2023-03-24T17:29:48.236Z,975.5
2023-03-24T17:31:50.011Z,975.5
2023-03-24T17:33:51.244Z,975.5
2023-03-24T17:37:54.339Z,975.5
2023-03-24T17:39:55.875Z,975.5
2023-03-24T17:41:57.538Z,975.5
2023-03-24T17:43:59.345Z,975.5
2023-03-24T17:48:02.010Z,975.6
2023-03-24T17:50:03.709Z,975.6
2023-03-24T17:54:06.289Z,975.6
2023-03-24T17:58:09.924Z,975.7
2023-03-24T18:00:11.783Z,975.7
2023-03-24T18:04:14.382Z,975.7
2023-03-24T18:08:17.186Z,975.7
2023-03-24T18:10:19.061Z,975.7
2023-03-24T18:14:21.694Z,975.7
2023-03-24T18:16:23.273Z,975.7
2023-03-24T18:20:26.199Z,975.7
2023-03-24T18:24:29.186Z,975.8
2023-03-24T18:26:31.109Z,975.8
2023-03-24T18:30:33.669Z,975.8
2023-03-24T18:32:35.353Z,975.8
2023-03-24T18:36:37.952Z,975.8
2023-03-24T18:40:40.733Z,975.9
2023-03-24T18:42:42.401Z,976
2023-03-24T18:46:44.865Z,976
2023-03-24T18:50:48.085Z,975.8
2023-03-24T18:52:49.235Z,975.9
2023-03-24T18:56:51.760Z,975.9
2023-03-24T18:58:53.330Z,975.9
2023-03-24T19:02:56.494Z,975.9
2023-03-24T19:06:59.060Z,976
2023-03-24T19:09:00.544Z,976
2023-03-24T19:13:04.293Z,976.1
2023-03-24T19:15:05.651Z,976.2
2023-03-24T19:19:08.019Z,976.1
2023-03-24T19:23:10.872Z,976.2
2023-03-24T19:25:11.950Z,976.2
2023-03-24T19:29:15.152Z,976.2
2023-03-24T19:33:17.955Z,976.1
2023-03-24T19:35:19.212Z,976.1
2023-03-24T19:39:21.840Z,976.1
2023-03-24T19:41:22.760Z,976.1
2023-03-24T19:45:25.737Z,976.2
2023-03-24T19:49:27.729Z,976.2
2023-03-24T19:51:29.084Z,976.2
2023-03-24T19:53:30.326Z,976.2
2023-03-24T19:55:31.775Z,976.2
2023-03-24T19:57:32.832Z,976.2
2023-03-24T20:01:35.407Z,976.2
2023-03-24T20:03:36.873Z,976.2
2023-03-24T20:05:38.116Z,976.2
2023-03-24T20:07:39.417Z,976.3
2023-03-24T20:11:42.559Z,976.2
2023-03-24T20:17:47.327Z,976.2
2023-03-24T20:21:49.485Z,976.2
2023-03-24T20:23:51.075Z,976.2
2023-03-24T20:27:53.851Z,976.3
2023-03-24T20:31:56.919Z,976.3
2023-03-24T20:33:58.663Z,976.3
2023-03-24T20:38:01.168Z,976.2
2023-03-24T20:40:02.262Z,976.2
2023-03-24T20:44:04.742Z,976.1
2023-03-24T20:48:08.145Z,976
2023-03-24T20:50:09.853Z,976
2023-03-24T20:54:12.363Z,976
2023-03-24T20:56:13.731Z,976
2023-03-24T21:00:16.798Z,976
2023-03-24T21:04:20.164Z,976
2023-03-24T21:06:22.031Z,976.1
2023-03-24T21:10:24.899Z,976
2023-03-24T21:14:27.874Z,976.1
2023-03-24T21:16:29.037Z,976.1
2023-03-24T21:20:31.929Z,976.1
2023-03-24T21:22:32.982Z,976.2
2023-03-24T21:26:36.255Z,976.3
2023-03-24T21:30:38.886Z,976.4
2023-03-24T21:32:40.426Z,976.4
2023-03-24T21:36:43.244Z,976.6
2023-03-24T21:38:44.920Z,976.7
2023-03-24T21:42:47.730Z,976.7
2023-03-24T21:46:50.662Z,976.5
2023-03-24T21:48:51.918Z,976.5
2023-03-24T21:52:55.148Z,976.8
2023-03-24T21:56:58.509Z,977.3
2023-03-24T21:58:59.505Z,977.5
2023-03-24T22:03:02.055Z,977.6
2023-03-24T22:05:03.387Z,977.5
2023-03-24T22:09:06.132Z,977.3
2023-03-24T22:13:09.215Z,977.3
2023-03-24T22:15:10.967Z,977.1
2023-03-24T22:19:14.237Z,976.9
2023-03-24T22:21:15.902Z,976.9
2023-03-24T22:25:18.347Z,976.8
2023-03-24T22:29:21.281Z,976.8
2023-03-24T22:31:22.546Z,976.8
2023-03-24T22:35:26.050Z,976.7
2023-03-24T22:40:12.753Z,976.8
2023-03-24T22:42:13.811Z,976.9
2023-03-24T22:44:15.301Z,976.9
2023-03-24T22:46:17.286Z,976.8
2023-03-24T22:50:19.257Z,976.8
2023-03-24T22:52:20.841Z,976.9
2023-03-24T22:54:22.035Z,976.8
2023-03-24T22:56:23.967Z,976.9
2023-03-24T22:58:25.647Z,976.9
2023-03-24T23:02:28.852Z,977
2023-03-24T23:04:30.075Z,977
2023-03-24T23:06:31.508Z,976.9
2023-03-24T23:08:32.848Z,976.9
2023-03-24T23:12:35.221Z,976.9
2023-03-24T23:14:36.425Z,976.8
2023-03-24T23:18:39.792Z,976.9
2023-03-24T23:22:42.629Z,976.7
2023-03-24T23:24:44.549Z,976.8
2023-03-24T23:28:47.805Z,976.8
2023-03-24T23:32:50.124Z,976.8
2023-03-24T23:34:51.981Z,976.7
2023-03-24T23:38:55.112Z,976.7
2023-03-24T23:40:56.064Z,976.7
2023-03-24T23:44:58.873Z,976.7
2023-03-24T23:49:02.100Z,976.8
2023-03-24T23:51:03.158Z,976.9
2023-03-24T23:55:06.471Z,977.1
2023-03-24T23:57:07.684Z,977
